sensor_id;sensor_type;location;lat;lon;timestamp;temperature;humidity
50690;DHT22;54375;48.298;11.238;2022-09-09T00:01:07;12.00;88.40
50690;DHT22;54375;48.298;11.238;2022-09-09T00:04:13;12.00;88.10
50690;DHT22;54375;48.298;11.238;2022-09-09T00:07:21;11.90;88.00
50690;DHT22;54375;48.298;11.238;2022-09-09T00:10:29;11.90;88.00
50690;DHT22;54375;48.298;11.238;2022-09-09T00:13:35;11.80;87.90
50690;DHT22;54375;48.298;11.238;2022-09-09T00:16:41;11.70;88.40
50690;DHT22;54375;48.298;11.238;2022-09-09T00:19:48;11.70;88.00
50690;DHT22;54375;48.298;11.238;2022-09-09T00:22:55;11.70;88.20
50690;DHT22;54375;48.298;11.238;2022-09-09T00:26:03;11.70;88.50
50690;DHT22;54375;48.298;11.238;2022-09-09T00:29:17;11.70;88.70
50690;DHT22;54375;48.298;11.238;2022-09-09T00:32:21;11.60;89.10
50690;DHT22;54375;48.298;11.238;2022-09-09T00:35:24;11.60;89.10
50690;DHT22;54375;48.298;11.238;2022-09-09T00:38:31;11.60;88.60
50690;DHT22;54375;48.298;11.238;2022-09-09T00:41:46;11.60;88.70
50690;DHT22;54375;48.298;11.238;2022-09-09T00:44:56;11.60;88.50
50690;DHT22;54375;48.298;11.238;2022-09-09T00:48:01;11.50;88.00
50690;DHT22;54375;48.298;11.238;2022-09-09T00:51:11;11.50;88.10
50690;DHT22;54375;48.298;11.238;2022-09-09T00:57:38;11.50;87.80
50690;DHT22;54375;48.298;11.238;2022-09-09T01:00:43;11.40;88.30
50690;DHT22;54375;48.298;11.238;2022-09-09T01:03:49;11.50;88.60
50690;DHT22;54375;48.298;11.238;2022-09-09T01:06:59;11.50;88.60
50690;DHT22;54375;48.298;11.238;2022-09-09T01:10:07;11.50;88.60
50690;DHT22;54375;48.298;11.238;2022-09-09T01:13:15;11.40;88.70
50690;DHT22;54375;48.298;11.238;2022-09-09T01:16:19;11.50;88.50
50690;DHT22;54375;48.298;11.238;2022-09-09T01:19:27;11.50;88.70
50690;DHT22;54375;48.298;11.238;2022-09-09T01:22:43;11.40;88.70
50690;DHT22;54375;48.298;11.238;2022-09-09T01:26:10;11.50;88.90
50690;DHT22;54375;48.298;11.238;2022-09-09T01:29:15;11.50;88.90
50690;DHT22;54375;48.298;11.238;2022-09-09T01:32:40;11.40;89.00
50690;DHT22;54375;48.298;11.238;2022-09-09T01:35:46;11.50;89.00
50690;DHT22;54375;48.298;11.238;2022-09-09T01:38:49;11.50;89.00
50690;DHT22;54375;48.298;11.238;2022-09-09T01:41:51;11.50;89.00
50690;DHT22;54375;48.298;11.238;2022-09-09T01:44:52;11.50;89.30
50690;DHT22;54375;48.298;11.238;2022-09-09T01:47:53;11.60;89.80
50690;DHT22;54375;48.298;11.238;2022-09-09T01:50:54;11.60;89.90
50690;DHT22;54375;48.298;11.238;2022-09-09T01:53:55;11.60;89.60
50690;DHT22;54375;48.298;11.238;2022-09-09T01:57:06;11.60;89.50
50690;DHT22;54375;48.298;11.238;2022-09-09T02:00:10;11.60;89.90
50690;DHT22;54375;48.298;11.238;2022-09-09T02:03:20;11.60;90.20
50690;DHT22;54375;48.298;11.238;2022-09-09T02:06:27;11.60;90.40
50690;DHT22;54375;48.298;11.238;2022-09-09T02:09:31;11.70;90.60
50690;DHT22;54375;48.298;11.238;2022-09-09T02:12:33;11.70;90.60
50690;DHT22;54375;48.298;11.238;2022-09-09T02:15:39;11.70;90.60
50690;DHT22;54375;48.298;11.238;2022-09-09T02:18:44;11.70;90.60
50690;DHT22;54375;48.298;11.238;2022-09-09T02:21:48;11.80;90.70
50690;DHT22;54375;48.298;11.238;2022-09-09T02:24:50;11.70;90.30
50690;DHT22;54375;48.298;11.238;2022-09-09T02:27:53;11.70;90.10
50690;DHT22;54375;48.298;11.238;2022-09-09T02:30:54;11.70;89.90
50690;DHT22;54375;48.298;11.238;2022-09-09T02:33:59;11.70;89.40
50690;DHT22;54375;48.298;11.238;2022-09-09T02:37:01;11.70;90.00
50690;DHT22;54375;48.298;11.238;2022-09-09T02:40:04;11.70;89.50
50690;DHT22;54375;48.298;11.238;2022-09-09T02:43:07;11.60;89.40
50690;DHT22;54375;48.298;11.238;2022-09-09T02:46:21;11.60;89.30
50690;DHT22;54375;48.298;11.238;2022-09-09T02:49:30;11.60;89.50
50690;DHT22;54375;48.298;11.238;2022-09-09T02:52:42;11.70;90.00
50690;DHT22;54375;48.298;11.238;2022-09-09T02:55:47;11.60;90.20
50690;DHT22;54375;48.298;11.238;2022-09-09T02:58:50;11.70;90.40
50690;DHT22;54375;48.298;11.238;2022-09-09T03:01:51;11.70;90.50
50690;DHT22;54375;48.298;11.238;2022-09-09T03:04:51;11.70;90.70
50690;DHT22;54375;48.298;11.238;2022-09-09T03:07:52;11.80;90.90
50690;DHT22;54375;48.298;11.238;2022-09-09T03:10:54;11.90;91.00
50690;DHT22;54375;48.298;11.238;2022-09-09T03:13:56;12.00;91.00
50690;DHT22;54375;48.298;11.238;2022-09-09T03:16:57;12.10;91.00
50690;DHT22;54375;48.298;11.238;2022-09-09T03:19:58;12.10;91.00
50690;DHT22;54375;48.298;11.238;2022-09-09T03:22:59;12.10;90.90
50690;DHT22;54375;48.298;11.238;2022-09-09T03:26:00;12.10;90.90
50690;DHT22;54375;48.298;11.238;2022-09-09T03:29:03;12.20;90.90
50690;DHT22;54375;48.298;11.238;2022-09-09T03:32:04;12.20;90.70
50690;DHT22;54375;48.298;11.238;2022-09-09T03:35:05;12.30;90.70
50690;DHT22;54375;48.298;11.238;2022-09-09T03:38:06;12.30;90.70
50690;DHT22;54375;48.298;11.238;2022-09-09T03:41:07;12.40;90.70
50690;DHT22;54375;48.298;11.238;2022-09-09T03:44:09;12.40;90.70
50690;DHT22;54375;48.298;11.238;2022-09-09T03:47:10;12.40;90.60
50690;DHT22;54375;48.298;11.238;2022-09-09T03:50:10;12.50;90.50
50690;DHT22;54375;48.298;11.238;2022-09-09T03:53:11;12.50;90.50
50690;DHT22;54375;48.298;11.238;2022-09-09T03:56:12;12.50;90.50
50690;DHT22;54375;48.298;11.238;2022-09-09T03:59:14;12.50;90.50
50690;DHT22;54375;48.298;11.238;2022-09-09T04:02:15;12.60;90.60
50690;DHT22;54375;48.298;11.238;2022-09-09T04:05:16;12.60;90.60
50690;DHT22;54375;48.298;11.238;2022-09-09T04:08:17;12.60;90.50
50690;DHT22;54375;48.298;11.238;2022-09-09T04:11:17;12.60;90.50
50690;DHT22;54375;48.298;11.238;2022-09-09T04:14:20;12.60;90.40
50690;DHT22;54375;48.298;11.238;2022-09-09T04:17:21;12.60;90.40
50690;DHT22;54375;48.298;11.238;2022-09-09T04:20:22;12.60;90.40
50690;DHT22;54375;48.298;11.238;2022-09-09T04:23:23;12.60;90.40
50690;DHT22;54375;48.298;11.238;2022-09-09T04:26:24;12.60;90.50
50690;DHT22;54375;48.298;11.238;2022-09-09T04:29:26;12.50;90.20
50690;DHT22;54375;48.298;11.238;2022-09-09T04:32:27;12.50;90.00
50690;DHT22;54375;48.298;11.238;2022-09-09T04:35:28;12.50;90.00
50690;DHT22;54375;48.298;11.238;2022-09-09T04:38:28;12.50;90.10
50690;DHT22;54375;48.298;11.238;2022-09-09T04:41:29;12.50;90.50
50690;DHT22;54375;48.298;11.238;2022-09-09T04:44:31;12.50;90.80
50690;DHT22;54375;48.298;11.238;2022-09-09T04:47:32;12.50;91.00
50690;DHT22;54375;48.298;11.238;2022-09-09T04:50:33;12.60;90.90
50690;DHT22;54375;48.298;11.238;2022-09-09T04:53:34;12.60;91.00
50690;DHT22;54375;48.298;11.238;2022-09-09T04:56:35;12.70;91.00
50690;DHT22;54375;48.298;11.238;2022-09-09T04:59:37;12.80;90.90
50690;DHT22;54375;48.298;11.238;2022-09-09T05:02:38;12.80;90.80
50690;DHT22;54375;48.298;11.238;2022-09-09T05:05:39;12.90;90.80
50690;DHT22;54375;48.298;11.238;2022-09-09T05:08:41;12.90;90.80
50690;DHT22;54375;48.298;11.238;2022-09-09T05:11:42;13.00;90.70
50690;DHT22;54375;48.298;11.238;2022-09-09T05:14:44;13.00;90.70
50690;DHT22;54375;48.298;11.238;2022-09-09T05:17:45;13.00;90.50
50690;DHT22;54375;48.298;11.238;2022-09-09T05:20:46;13.00;90.30
50690;DHT22;54375;48.298;11.238;2022-09-09T05:23:46;13.00;90.30
50690;DHT22;54375;48.298;11.238;2022-09-09T05:26:47;13.00;90.40
50690;DHT22;54375;48.298;11.238;2022-09-09T05:29:49;13.00;90.60
50690;DHT22;54375;48.298;11.238;2022-09-09T05:32:50;13.00;90.30
50690;DHT22;54375;48.298;11.238;2022-09-09T05:35:56;13.10;90.30
50690;DHT22;54375;48.298;11.238;2022-09-09T05:38:56;13.10;90.20
50690;DHT22;54375;48.298;11.238;2022-09-09T05:41:57;13.20;90.20
50690;DHT22;54375;48.298;11.238;2022-09-09T05:44:59;13.30;90.20
50690;DHT22;54375;48.298;11.238;2022-09-09T05:48:00;13.30;90.10
50690;DHT22;54375;48.298;11.238;2022-09-09T05:51:02;13.40;90.10
50690;DHT22;54375;48.298;11.238;2022-09-09T05:54:03;13.40;90.00
50690;DHT22;54375;48.298;11.238;2022-09-09T05:57:04;13.50;89.70
50690;DHT22;54375;48.298;11.238;2022-09-09T06:00:07;13.60;89.80
50690;DHT22;54375;48.298;11.238;2022-09-09T06:03:10;13.70;89.70
50690;DHT22;54375;48.298;11.238;2022-09-09T06:06:13;13.80;89.90
50690;DHT22;54375;48.298;11.238;2022-09-09T06:09:14;13.90;89.90
50690;DHT22;54375;48.298;11.238;2022-09-09T06:12:14;13.90;89.90
50690;DHT22;54375;48.298;11.238;2022-09-09T06:15:17;13.90;89.90
50690;DHT22;54375;48.298;11.238;2022-09-09T06:18:18;14.00;90.00
50690;DHT22;54375;48.298;11.238;2022-09-09T06:21:20;14.00;89.90
50690;DHT22;54375;48.298;11.238;2022-09-09T06:24:22;14.10;89.70
50690;DHT22;54375;48.298;11.238;2022-09-09T06:27:22;14.10;89.70
50690;DHT22;54375;48.298;11.238;2022-09-09T06:30:24;14.10;90.20
50690;DHT22;54375;48.298;11.238;2022-09-09T06:33:25;14.10;90.80
50690;DHT22;54375;48.298;11.238;2022-09-09T06:36:28;14.10;90.80
50690;DHT22;54375;48.298;11.238;2022-09-09T06:39:29;14.10;90.70
50690;DHT22;54375;48.298;11.238;2022-09-09T06:42:30;14.10;90.30
50690;DHT22;54375;48.298;11.238;2022-09-09T06:45:32;14.20;89.90
50690;DHT22;54375;48.298;11.238;2022-09-09T06:48:33;14.20;89.80
50690;DHT22;54375;48.298;11.238;2022-09-09T06:51:35;14.30;89.70
50690;DHT22;54375;48.298;11.238;2022-09-09T06:54:36;14.40;89.60
50690;DHT22;54375;48.298;11.238;2022-09-09T06:57:37;14.50;89.20
50690;DHT22;54375;48.298;11.238;2022-09-09T07:00:39;14.60;88.80
50690;DHT22;54375;48.298;11.238;2022-09-09T07:03:40;14.60;88.60
50690;DHT22;54375;48.298;11.238;2022-09-09T07:06:42;14.80;88.40
50690;DHT22;54375;48.298;11.238;2022-09-09T07:09:43;14.90;88.20
50690;DHT22;54375;48.298;11.238;2022-09-09T07:12:44;15.10;87.80
50690;DHT22;54375;48.298;11.238;2022-09-09T07:15:46;15.20;87.10
50690;DHT22;54375;48.298;11.238;2022-09-09T07:18:47;15.30;86.60
50690;DHT22;54375;48.298;11.238;2022-09-09T07:21:48;15.40;86.40
50690;DHT22;54375;48.298;11.238;2022-09-09T07:24:48;15.50;86.10
50690;DHT22;54375;48.298;11.238;2022-09-09T07:27:49;15.60;85.90
50690;DHT22;54375;48.298;11.238;2022-09-09T07:30:55;15.70;85.50
50690;DHT22;54375;48.298;11.238;2022-09-09T07:33:56;15.80;84.80
50690;DHT22;54375;48.298;11.238;2022-09-09T07:36:57;15.80;84.50
50690;DHT22;54375;48.298;11.238;2022-09-09T07:39:58;15.80;83.50
50690;DHT22;54375;48.298;11.238;2022-09-09T07:42:59;15.80;82.40
50690;DHT22;54375;48.298;11.238;2022-09-09T07:46:01;15.80;82.80
50690;DHT22;54375;48.298;11.238;2022-09-09T07:49:02;15.80;82.30
50690;DHT22;54375;48.298;11.238;2022-09-09T07:52:03;15.80;82.50
50690;DHT22;54375;48.298;11.238;2022-09-09T07:55:04;15.80;83.00
50690;DHT22;54375;48.298;11.238;2022-09-09T07:58:05;15.80;82.80
50690;DHT22;54375;48.298;11.238;2022-09-09T08:01:09;15.80;83.10
50690;DHT22;54375;48.298;11.238;2022-09-09T08:04:13;15.90;82.70
50690;DHT22;54375;48.298;11.238;2022-09-09T08:07:14;16.00;82.90
50690;DHT22;54375;48.298;11.238;2022-09-09T08:10:16;16.20;82.80
50690;DHT22;54375;48.298;11.238;2022-09-09T08:13:16;16.40;82.40
50690;DHT22;54375;48.298;11.238;2022-09-09T08:16:20;16.60;82.70
50690;DHT22;54375;48.298;11.238;2022-09-09T08:19:21;16.70;82.30
50690;DHT22;54375;48.298;11.238;2022-09-09T08:22:22;16.90;82.10
50690;DHT22;54375;48.298;11.238;2022-09-09T08:25:23;17.10;82.00
50690;DHT22;54375;48.298;11.238;2022-09-09T08:28:23;17.30;81.30
50690;DHT22;54375;48.298;11.238;2022-09-09T08:31:28;17.40;81.40
50690;DHT22;54375;48.298;11.238;2022-09-09T08:34:30;17.60;80.10
50690;DHT22;54375;48.298;11.238;2022-09-09T08:37:30;17.70;79.60
50690;DHT22;54375;48.298;11.238;2022-09-09T08:40:34;17.80;79.40
50690;DHT22;54375;48.298;11.238;2022-09-09T08:43:39;17.90;79.80
50690;DHT22;54375;48.298;11.238;2022-09-09T08:46:48;18.10;78.70
50690;DHT22;54375;48.298;11.238;2022-09-09T08:50:02;18.30;77.40
50690;DHT22;54375;48.298;11.238;2022-09-09T08:53:11;18.50;76.40
50690;DHT22;54375;48.298;11.238;2022-09-09T08:56:18;18.60;75.70
50690;DHT22;54375;48.298;11.238;2022-09-09T08:59:19;18.70;74.90
50690;DHT22;54375;48.298;11.238;2022-09-09T09:02:26;18.80;74.50
50690;DHT22;54375;48.298;11.238;2022-09-09T09:05:32;19.00;74.70
50690;DHT22;54375;48.298;11.238;2022-09-09T09:08:41;19.10;74.00
50690;DHT22;54375;48.298;11.238;2022-09-09T09:11:47;19.20;74.00
50690;DHT22;54375;48.298;11.238;2022-09-09T09:14:49;19.30;74.20
50690;DHT22;54375;48.298;11.238;2022-09-09T09:17:52;19.30;74.10
50690;DHT22;54375;48.298;11.238;2022-09-09T09:21:00;19.30;74.20
50690;DHT22;54375;48.298;11.238;2022-09-09T09:24:05;19.40;74.50
50690;DHT22;54375;48.298;11.238;2022-09-09T09:27:13;19.30;74.00
50690;DHT22;54375;48.298;11.238;2022-09-09T09:30:16;19.30;74.10
50690;DHT22;54375;48.298;11.238;2022-09-09T09:33:22;19.20;73.90
50690;DHT22;54375;48.298;11.238;2022-09-09T09:36:33;19.30;73.50
50690;DHT22;54375;48.298;11.238;2022-09-09T09:39:35;19.30;73.60
50690;DHT22;54375;48.298;11.238;2022-09-09T09:42:36;19.40;73.70
50690;DHT22;54375;48.298;11.238;2022-09-09T09:45:42;19.50;73.30
50690;DHT22;54375;48.298;11.238;2022-09-09T09:48:44;19.70;73.10
50690;DHT22;54375;48.298;11.238;2022-09-09T09:51:45;19.80;72.00
50690;DHT22;54375;48.298;11.238;2022-09-09T09:54:46;19.90;70.70
50690;DHT22;54375;48.298;11.238;2022-09-09T09:57:47;20.00;71.60
50690;DHT22;54375;48.298;11.238;2022-09-09T10:00:49;20.10;70.30
50690;DHT22;54375;48.298;11.238;2022-09-09T10:03:52;20.20;70.50
50690;DHT22;54375;48.298;11.238;2022-09-09T10:06:53;20.30;69.00
50690;DHT22;54375;48.298;11.238;2022-09-09T10:09:56;20.30;68.20
50690;DHT22;54375;48.298;11.238;2022-09-09T10:13:02;20.40;67.40
50690;DHT22;54375;48.298;11.238;2022-09-09T10:16:20;20.30;67.00
50690;DHT22;54375;48.298;11.238;2022-09-09T10:19:30;20.30;67.70
50690;DHT22;54375;48.298;11.238;2022-09-09T10:22:32;20.30;67.00
50690;DHT22;54375;48.298;11.238;2022-09-09T10:25:52;20.30;67.40
50690;DHT22;54375;48.298;11.238;2022-09-09T10:29:26;20.40;66.90
50690;DHT22;54375;48.298;11.238;2022-09-09T10:32:37;20.60;66.80
50690;DHT22;54375;48.298;11.238;2022-09-09T10:35:44;20.90;67.00
50690;DHT22;54375;48.298;11.238;2022-09-09T10:38:47;21.20;66.70
50690;DHT22;54375;48.298;11.238;2022-09-09T10:41:54;21.30;65.80
50690;DHT22;54375;48.298;11.238;2022-09-09T10:45:05;21.50;65.00
50690;DHT22;54375;48.298;11.238;2022-09-09T10:48:30;21.40;63.90
50690;DHT22;54375;48.298;11.238;2022-09-09T10:51:40;21.50;63.40
50690;DHT22;54375;48.298;11.238;2022-09-09T10:54:53;21.50;63.10
50690;DHT22;54375;48.298;11.238;2022-09-09T10:57:58;21.40;63.20
50690;DHT22;54375;48.298;11.238;2022-09-09T11:01:03;21.40;63.80
50690;DHT22;54375;48.298;11.238;2022-09-09T11:04:15;21.60;64.00
50690;DHT22;54375;48.298;11.238;2022-09-09T11:07:25;21.70;63.50
50690;DHT22;54375;48.298;11.238;2022-09-09T11:10:34;21.80;63.20
50690;DHT22;54375;48.298;11.238;2022-09-09T11:13:42;21.90;63.40
50690;DHT22;54375;48.298;11.238;2022-09-09T11:16:47;21.90;62.60
50690;DHT22;54375;48.298;11.238;2022-09-09T11:19:49;21.90;61.30
50690;DHT22;54375;48.298;11.238;2022-09-09T11:22:55;21.90;61.20
50690;DHT22;54375;48.298;11.238;2022-09-09T11:25:59;22.00;61.20
50690;DHT22;54375;48.298;11.238;2022-09-09T11:29:22;22.10;60.30
50690;DHT22;54375;48.298;11.238;2022-09-09T11:32:39;22.00;60.30
50690;DHT22;54375;48.298;11.238;2022-09-09T11:35:53;22.00;60.50
50690;DHT22;54375;48.298;11.238;2022-09-09T11:39:02;21.90;59.20
50690;DHT22;54375;48.298;11.238;2022-09-09T11:42:07;22.00;59.80
50690;DHT22;54375;48.298;11.238;2022-09-09T11:45:22;22.00;58.90
50690;DHT22;54375;48.298;11.238;2022-09-09T11:48:28;21.90;59.40
50690;DHT22;54375;48.298;11.238;2022-09-09T11:51:31;21.80;59.40
50690;DHT22;54375;48.298;11.238;2022-09-09T11:54:46;21.90;60.10
50690;DHT22;54375;48.298;11.238;2022-09-09T11:57:47;21.80;58.90
50690;DHT22;54375;48.298;11.238;2022-09-09T12:00:49;21.70;59.90
50690;DHT22;54375;48.298;11.238;2022-09-09T12:03:54;21.70;59.90
50690;DHT22;54375;48.298;11.238;2022-09-09T12:06:58;21.70;60.20
50690;DHT22;54375;48.298;11.238;2022-09-09T12:10:04;21.90;60.70
50690;DHT22;54375;48.298;11.238;2022-09-09T12:13:15;22.00;62.10
50690;DHT22;54375;48.298;11.238;2022-09-09T12:16:29;22.10;61.20
50690;DHT22;54375;48.298;11.238;2022-09-09T12:19:30;22.20;59.60
50690;DHT22;54375;48.298;11.238;2022-09-09T12:22:35;22.40;58.40
50690;DHT22;54375;48.298;11.238;2022-09-09T12:25:51;22.40;57.10
50690;DHT22;54375;48.298;11.238;2022-09-09T12:29:02;22.30;57.70
50690;DHT22;54375;48.298;11.238;2022-09-09T12:32:08;22.20;57.70
50690;DHT22;54375;48.298;11.238;2022-09-09T12:35:13;22.20;58.20
50690;DHT22;54375;48.298;11.238;2022-09-09T12:38:26;22.20;58.00
50690;DHT22;54375;48.298;11.238;2022-09-09T12:41:31;22.20;57.70
50690;DHT22;54375;48.298;11.238;2022-09-09T12:44:32;22.30;58.20
50690;DHT22;54375;48.298;11.238;2022-09-09T12:47:39;22.20;56.70
50690;DHT22;54375;48.298;11.238;2022-09-09T12:50:45;22.20;57.10
50690;DHT22;54375;48.298;11.238;2022-09-09T12:53:47;22.20;57.70
50690;DHT22;54375;48.298;11.238;2022-09-09T12:56:49;22.20;57.80
50690;DHT22;54375;48.298;11.238;2022-09-09T12:59:50;22.10;56.90
50690;DHT22;54375;48.298;11.238;2022-09-09T13:02:52;22.10;56.40
50690;DHT22;54375;48.298;11.238;2022-09-09T13:05:54;22.00;56.20
50690;DHT22;54375;48.298;11.238;2022-09-09T13:08:59;22.10;56.50
50690;DHT22;54375;48.298;11.238;2022-09-09T13:12:02;22.10;56.20
50690;DHT22;54375;48.298;11.238;2022-09-09T13:15:04;22.20;57.00
50690;DHT22;54375;48.298;11.238;2022-09-09T13:18:12;22.20;56.90
50690;DHT22;54375;48.298;11.238;2022-09-09T13:21:13;22.10;55.40
50690;DHT22;54375;48.298;11.238;2022-09-09T13:24:29;22.10;56.00
50690;DHT22;54375;48.298;11.238;2022-09-09T13:27:33;22.30;56.20
50690;DHT22;54375;48.298;11.238;2022-09-09T13:30:36;22.50;56.10
50690;DHT22;54375;48.298;11.238;2022-09-09T13:33:38;22.80;55.00
50690;DHT22;54375;48.298;11.238;2022-09-09T13:36:39;23.20;54.30
50690;DHT22;54375;48.298;11.238;2022-09-09T13:39:40;23.40;53.10
50690;DHT22;54375;48.298;11.238;2022-09-09T13:42:42;23.30;53.30
50690;DHT22;54375;48.298;11.238;2022-09-09T13:45:53;23.20;54.30
50690;DHT22;54375;48.298;11.238;2022-09-09T13:48:55;23.20;54.10
50690;DHT22;54375;48.298;11.238;2022-09-09T13:52:04;23.20;54.00
50690;DHT22;54375;48.298;11.238;2022-09-09T13:55:07;23.30;54.20
50690;DHT22;54375;48.298;11.238;2022-09-09T13:58:16;23.60;54.10
50690;DHT22;54375;48.298;11.238;2022-09-09T14:01:17;23.90;51.10
50690;DHT22;54375;48.298;11.238;2022-09-09T14:04:19;24.20;50.50
50690;DHT22;54375;48.298;11.238;2022-09-09T14:07:19;24.50;48.50
50690;DHT22;54375;48.298;11.238;2022-09-09T14:10:20;24.80;48.80
50690;DHT22;54375;48.298;11.238;2022-09-09T14:13:23;24.80;47.90
50690;DHT22;54375;48.298;11.238;2022-09-09T14:16:23;24.20;48.80
50690;DHT22;54375;48.298;11.238;2022-09-09T14:19:24;23.80;50.50
50690;DHT22;54375;48.298;11.238;2022-09-09T14:22:25;23.50;52.20
50690;DHT22;54375;48.298;11.238;2022-09-09T14:25:26;23.00;52.70
50690;DHT22;54375;48.298;11.238;2022-09-09T14:28:28;22.50;54.00
50690;DHT22;54375;48.298;11.238;2022-09-09T14:31:29;22.30;55.20
50690;DHT22;54375;48.298;11.238;2022-09-09T14:34:29;22.10;56.20
50690;DHT22;54375;48.298;11.238;2022-09-09T14:37:30;22.00;56.80
50690;DHT22;54375;48.298;11.238;2022-09-09T14:40:31;22.20;56.10
50690;DHT22;54375;48.298;11.238;2022-09-09T14:43:33;22.30;55.40
50690;DHT22;54375;48.298;11.238;2022-09-09T14:46:34;22.40;55.40
50690;DHT22;54375;48.298;11.238;2022-09-09T14:49:35;22.30;55.30
50690;DHT22;54375;48.298;11.238;2022-09-09T14:52:35;22.20;55.90
50690;DHT22;54375;48.298;11.238;2022-09-09T14:55:37;22.20;56.50
50690;DHT22;54375;48.298;11.238;2022-09-09T14:58:39;22.50;57.20
50690;DHT22;54375;48.298;11.238;2022-09-09T15:01:39;23.00;55.40
50690;DHT22;54375;48.298;11.238;2022-09-09T15:04:40;23.40;55.60
50690;DHT22;54375;48.298;11.238;2022-09-09T15:07:41;23.40;54.20
50690;DHT22;54375;48.298;11.238;2022-09-09T15:10:42;23.50;54.50
50690;DHT22;54375;48.298;11.238;2022-09-09T15:13:44;23.80;55.10
50690;DHT22;54375;48.298;11.238;2022-09-09T15:16:45;24.20;53.50
50690;DHT22;54375;48.298;11.238;2022-09-09T15:19:46;24.60;52.80
50690;DHT22;54375;48.298;11.238;2022-09-09T15:22:46;24.40;52.20
50690;DHT22;54375;48.298;11.238;2022-09-09T15:25:51;24.30;52.80
50690;DHT22;54375;48.298;11.238;2022-09-09T15:28:53;24.40;53.50
50690;DHT22;54375;48.298;11.238;2022-09-09T15:31:54;24.40;53.40
50690;DHT22;54375;48.298;11.238;2022-09-09T15:34:55;24.40;53.60
50690;DHT22;54375;48.298;11.238;2022-09-09T15:37:56;24.00;53.20
50690;DHT22;54375;48.298;11.238;2022-09-09T15:40:57;23.70;54.30
50690;DHT22;54375;48.298;11.238;2022-09-09T15:43:59;23.30;55.10
50690;DHT22;54375;48.298;11.238;2022-09-09T15:47:00;22.90;55.50
50690;DHT22;54375;48.298;11.238;2022-09-09T15:50:01;22.70;56.20
50690;DHT22;54375;48.298;11.238;2022-09-09T15:53:02;22.80;56.80
50690;DHT22;54375;48.298;11.238;2022-09-09T15:56:02;22.90;55.50
50690;DHT22;54375;48.298;11.238;2022-09-09T15:59:05;23.20;55.30
50690;DHT22;54375;48.298;11.238;2022-09-09T16:02:06;23.40;54.50
50690;DHT22;54375;48.298;11.238;2022-09-09T16:05:07;23.60;54.50
50690;DHT22;54375;48.298;11.238;2022-09-09T16:08:08;23.70;53.90
50690;DHT22;54375;48.298;11.238;2022-09-09T16:11:11;23.60;53.20
50690;DHT22;54375;48.298;11.238;2022-09-09T16:14:13;23.50;53.80
50690;DHT22;54375;48.298;11.238;2022-09-09T16:17:14;23.40;54.00
50690;DHT22;54375;48.298;11.238;2022-09-09T16:20:15;23.20;53.50
50690;DHT22;54375;48.298;11.238;2022-09-09T16:23:16;22.90;53.80
50690;DHT22;54375;48.298;11.238;2022-09-09T16:26:18;22.50;54.10
50690;DHT22;54375;48.298;11.238;2022-09-09T16:29:21;22.20;54.60
50690;DHT22;54375;48.298;11.238;2022-09-09T16:32:22;22.00;54.90
50690;DHT22;54375;48.298;11.238;2022-09-09T16:35:23;22.00;55.40
50690;DHT22;54375;48.298;11.238;2022-09-09T16:38:23;21.90;56.30
50690;DHT22;54375;48.298;11.238;2022-09-09T16:41:25;21.80;56.10
50690;DHT22;54375;48.298;11.238;2022-09-09T16:44:27;21.60;56.30
50690;DHT22;54375;48.298;11.238;2022-09-09T16:47:28;21.50;56.60
50690;DHT22;54375;48.298;11.238;2022-09-09T16:50:30;21.40;56.80
50690;DHT22;54375;48.298;11.238;2022-09-09T16:53:32;21.20;57.20
50690;DHT22;54375;48.298;11.238;2022-09-09T16:56:34;21.00;57.80
50690;DHT22;54375;48.298;11.238;2022-09-09T16:59:36;20.80;58.30
50690;DHT22;54375;48.298;11.238;2022-09-09T17:02:37;20.60;58.90
50690;DHT22;54375;48.298;11.238;2022-09-09T17:05:39;20.40;59.60
50690;DHT22;54375;48.298;11.238;2022-09-09T17:08:41;20.20;60.00
50690;DHT22;54375;48.298;11.238;2022-09-09T17:11:42;20.00;60.80
50690;DHT22;54375;48.298;11.238;2022-09-09T17:14:44;19.80;61.40
50690;DHT22;54375;48.298;11.238;2022-09-09T17:17:45;19.50;61.90
50690;DHT22;54375;48.298;11.238;2022-09-09T17:20:46;19.40;62.50
50690;DHT22;54375;48.298;11.238;2022-09-09T17:23:47;19.20;63.60
50690;DHT22;54375;48.298;11.238;2022-09-09T17:26:48;19.00;63.60
50690;DHT22;54375;48.298;11.238;2022-09-09T17:29:50;18.90;64.30
50690;DHT22;54375;48.298;11.238;2022-09-09T17:32:51;18.70;65.00
50690;DHT22;54375;48.298;11.238;2022-09-09T17:35:52;18.50;65.50
50690;DHT22;54375;48.298;11.238;2022-09-09T17:38:53;18.30;66.00
50690;DHT22;54375;48.298;11.238;2022-09-09T17:41:54;18.20;66.50
50690;DHT22;54375;48.298;11.238;2022-09-09T17:44:56;18.10;67.00
50690;DHT22;54375;48.298;11.238;2022-09-09T17:47:56;17.90;67.60
50690;DHT22;54375;48.298;11.238;2022-09-09T17:50:58;17.80;68.10
50690;DHT22;54375;48.298;11.238;2022-09-09T17:54:00;17.60;68.50
50690;DHT22;54375;48.298;11.238;2022-09-09T17:57:01;17.50;69.00
50690;DHT22;54375;48.298;11.238;2022-09-09T18:00:05;17.40;69.40
50690;DHT22;54375;48.298;11.238;2022-09-09T18:03:07;17.30;70.00
50690;DHT22;54375;48.298;11.238;2022-09-09T18:06:09;17.20;70.40
50690;DHT22;54375;48.298;11.238;2022-09-09T18:09:12;17.00;70.70
50690;DHT22;54375;48.298;11.238;2022-09-09T18:12:13;17.00;71.20
50690;DHT22;54375;48.298;11.238;2022-09-09T18:15:15;16.90;71.60
50690;DHT22;54375;48.298;11.238;2022-09-09T18:18:16;16.80;71.90
50690;DHT22;54375;48.298;11.238;2022-09-09T18:21:18;16.70;72.20
50690;DHT22;54375;48.298;11.238;2022-09-09T18:24:19;16.70;72.40
50690;DHT22;54375;48.298;11.238;2022-09-09T18:27:20;16.60;72.50
50690;DHT22;54375;48.298;11.238;2022-09-09T18:30:22;16.60;73.10
50690;DHT22;54375;48.298;11.238;2022-09-09T18:33:23;16.60;73.50
50690;DHT22;54375;48.298;11.238;2022-09-09T18:36:26;16.60;75.00
50690;DHT22;54375;48.298;11.238;2022-09-09T18:39:28;16.50;75.80
50690;DHT22;54375;48.298;11.238;2022-09-09T18:42:29;16.40;66.30
50690;DHT22;54375;48.298;11.238;2022-09-09T18:45:34;16.30;64.40
50690;DHT22;54375;48.298;11.238;2022-09-09T18:48:35;16.10;65.90
50690;DHT22;54375;48.298;11.238;2022-09-09T18:51:37;15.90;69.00
50690;DHT22;54375;48.298;11.238;2022-09-09T18:54:38;15.60;71.60
50690;DHT22;54375;48.298;11.238;2022-09-09T18:57:39;15.40;72.70
50690;DHT22;54375;48.298;11.238;2022-09-09T19:00:45;15.40;73.90
50690;DHT22;54375;48.298;11.238;2022-09-09T19:03:46;15.40;74.60